sensor_id;sensor_type;location;lat;lon;timestamp;P1;durP1;ratioP1;P2;durP2;ratioP2
28311;SDS011;15572;48.810;9.148;2023-07-28T00:03:00;4.90;;;2.85;;
28311;SDS011;15572;48.810;9.148;2023-07-28T00:07:56;4.10;;;2.57;;
28311;SDS011;15572;48.810;9.148;2023-07-28T00:12:54;3.10;;;2.80;;
28311;SDS011;15572;48.810;9.148;2023-07-28T00:17:51;4.75;;;2.38;;
28311;SDS011;15572;48.810;9.148;2023-07-28T00:22:47;3.88;;;2.67;;
28311;SDS011;15572;48.810;9.148;2023-07-28T00:27:43;3.65;;;2.60;;
28311;SDS011;15572;48.810;9.148;2023-07-28T00:32:41;4.13;;;2.40;;
28311;SDS011;15572;48.810;9.148;2023-07-28T00:37:38;4.45;;;2.72;;
28311;SDS011;15572;48.810;9.148;2023-07-28T00:42:34;3.38;;;2.45;;
28311;SDS011;15572;48.810;9.148;2023-07-28T00:47:31;2.92;;;2.63;;
28311;SDS011;15572;48.810;9.148;2023-07-28T00:52:28;3.67;;;2.50;;
28311;SDS011;15572;48.810;9.148;2023-07-28T00:57:25;3.83;;;2.50;;
28311;SDS011;15572;48.810;9.148;2023-07-28T01:02:22;3.20;;;2.90;;
28311;SDS011;15572;48.810;9.148;2023-07-28T01:07:21;3.97;;;2.70;;
28311;SDS011;15572;48.810;9.148;2023-07-28T01:12:24;5.17;;;2.97;;
28311;SDS011;15572;48.810;9.148;2023-07-28T01:17:21;4.47;;;2.50;;
28311;SDS011;15572;48.810;9.148;2023-07-28T01:22:24;3.80;;;2.45;;
28311;SDS011;15572;48.810;9.148;2023-07-28T01:27:41;3.55;;;2.55;;
28311;SDS011;15572;48.810;9.148;2023-07-28T01:32:39;2.63;;;2.42;;
28311;SDS011;15572;48.810;9.148;2023-07-28T01:37:35;2.92;;;2.60;;
28311;SDS011;15572;48.810;9.148;2023-07-28T01:42:31;3.08;;;2.40;;
28311;SDS011;15572;48.810;9.148;2023-07-28T01:47:29;3.92;;;2.40;;
28311;SDS011;15572;48.810;9.148;2023-07-28T01:52:26;2.90;;;2.50;;
28311;SDS011;15572;48.810;9.148;2023-07-28T01:57:22;4.07;;;2.90;;
28311;SDS011;15572;48.810;9.148;2023-07-28T02:02:22;3.23;;;2.90;;
28311;SDS011;15572;48.810;9.148;2023-07-28T02:07:19;2.87;;;2.60;;
28311;SDS011;15572;48.810;9.148;2023-07-28T02:12:16;4.47;;;2.90;;
28311;SDS011;15572;48.810;9.148;2023-07-28T02:17:12;22.50;;;14.10;;
28311;SDS011;15572;48.810;9.148;2023-07-28T02:22:09;19.55;;;12.13;;
28311;SDS011;15572;48.810;9.148;2023-07-28T02:27:07;10.90;;;7.75;;
28311;SDS011;15572;48.810;9.148;2023-07-28T02:32:04;9.88;;;5.95;;
28311;SDS011;15572;48.810;9.148;2023-07-28T02:37:01;9.03;;;5.10;;
28311;SDS011;15572;48.810;9.148;2023-07-28T02:41:58;7.23;;;4.80;;
28311;SDS011;15572;48.810;9.148;2023-07-28T02:46:56;6.78;;;4.53;;
28311;SDS011;15572;48.810;9.148;2023-07-28T02:51:52;4.70;;;3.60;;
28311;SDS011;15572;48.810;9.148;2023-07-28T02:56:49;5.00;;;3.20;;
28311;SDS011;15572;48.810;9.148;2023-07-28T03:01:45;3.85;;;3.17;;
28311;SDS011;15572;48.810;9.148;2023-07-28T03:06:43;4.07;;;3.37;;
28311;SDS011;15572;48.810;9.148;2023-07-28T03:11:39;3.57;;;3.23;;
28311;SDS011;15572;48.810;9.148;2023-07-28T03:16:36;4.77;;;3.37;;
28311;SDS011;15572;48.810;9.148;2023-07-28T03:21:32;4.17;;;3.30;;
28311;SDS011;15572;48.810;9.148;2023-07-28T03:26:30;6.20;;;3.70;;
28311;SDS011;15572;48.810;9.148;2023-07-28T03:31:27;4.72;;;3.15;;
28311;SDS011;15572;48.810;9.148;2023-07-28T03:36:23;4.27;;;3.37;;
28311;SDS011;15572;48.810;9.148;2023-07-28T03:41:20;5.17;;;3.10;;
28311;SDS011;15572;48.810;9.148;2023-07-28T03:46:18;5.63;;;3.20;;
28311;SDS011;15572;48.810;9.148;2023-07-28T03:51:14;4.57;;;3.00;;
28311;SDS011;15572;48.810;9.148;2023-07-28T03:56:11;3.83;;;2.67;;
28311;SDS011;15572;48.810;9.148;2023-07-28T04:01:07;3.77;;;2.80;;
28311;SDS011;15572;48.810;9.148;2023-07-28T04:06:09;4.20;;;3.20;;
28311;SDS011;15572;48.810;9.148;2023-07-28T04:11:06;5.03;;;3.40;;
28311;SDS011;15572;48.810;9.148;2023-07-28T04:16:03;4.63;;;3.20;;
28311;SDS011;15572;48.810;9.148;2023-07-28T04:20:59;4.63;;;3.13;;
28311;SDS011;15572;48.810;9.148;2023-07-28T04:25:57;4.00;;;3.20;;
28311;SDS011;15572;48.810;9.148;2023-07-28T04:30:54;4.83;;;3.80;;
28311;SDS011;15572;48.810;9.148;2023-07-28T04:35:50;4.37;;;3.60;;
28311;SDS011;15572;48.810;9.148;2023-07-28T04:40:47;5.00;;;3.40;;
28311;SDS011;15572;48.810;9.148;2023-07-28T04:45:45;4.53;;;3.90;;
28311;SDS011;15572;48.810;9.148;2023-07-28T04:50:41;6.80;;;4.10;;
28311;SDS011;15572;48.810;9.148;2023-07-28T04:55:38;5.30;;;3.77;;
28311;SDS011;15572;48.810;9.148;2023-07-28T05:00:34;5.47;;;4.07;;
28311;SDS011;15572;48.810;9.148;2023-07-28T05:05:32;4.93;;;4.27;;
28311;SDS011;15572;48.810;9.148;2023-07-28T05:10:29;5.33;;;4.13;;
28311;SDS011;15572;48.810;9.148;2023-07-28T05:15:25;5.03;;;3.97;;
28311;SDS011;15572;48.810;9.148;2023-07-28T05:20:21;5.67;;;4.07;;
28311;SDS011;15572;48.810;9.148;2023-07-28T05:25:19;7.27;;;4.10;;
28311;SDS011;15572;48.810;9.148;2023-07-28T05:30:17;4.93;;;4.35;;
28311;SDS011;15572;48.810;9.148;2023-07-28T05:35:14;5.10;;;3.80;;
28311;SDS011;15572;48.810;9.148;2023-07-28T05:40:11;5.17;;;4.27;;
28311;SDS011;15572;48.810;9.148;2023-07-28T05:45:10;5.78;;;4.53;;
28311;SDS011;15572;48.810;9.148;2023-07-28T05:50:07;5.63;;;4.53;;
28311;SDS011;15572;48.810;9.148;2023-07-28T05:55:05;11.13;;;8.13;;
28311;SDS011;15572;48.810;9.148;2023-07-28T06:00:02;7.05;;;5.35;;
28311;SDS011;15572;48.810;9.148;2023-07-28T06:05:00;7.68;;;5.50;;
28311;SDS011;15572;48.810;9.148;2023-07-28T06:09:57;10.10;;;6.10;;
28311;SDS011;15572;48.810;9.148;2023-07-28T06:14:54;8.60;;;5.68;;
28311;SDS011;15572;48.810;9.148;2023-07-28T06:19:50;8.50;;;5.70;;
28311;SDS011;15572;48.810;9.148;2023-07-28T06:24:48;9.77;;;6.03;;
28311;SDS011;15572;48.810;9.148;2023-07-28T06:29:45;8.68;;;6.40;;
28311;SDS011;15572;48.810;9.148;2023-07-28T06:34:41;14.57;;;7.18;;
28311;SDS011;15572;48.810;9.148;2023-07-28T06:39:38;15.15;;;6.43;;
28311;SDS011;15572;48.810;9.148;2023-07-28T06:44:36;6.90;;;4.65;;
28311;SDS011;15572;48.810;9.148;2023-07-28T06:49:32;6.95;;;4.60;;
28311;SDS011;15572;48.810;9.148;2023-07-28T06:54:28;5.78;;;4.85;;
28311;SDS011;15572;48.810;9.148;2023-07-28T06:59:25;6.35;;;4.85;;
28311;SDS011;15572;48.810;9.148;2023-07-28T07:04:23;6.18;;;4.80;;
28311;SDS011;15572;48.810;9.148;2023-07-28T07:09:20;4.97;;;4.47;;
28311;SDS011;15572;48.810;9.148;2023-07-28T07:14:16;6.80;;;4.85;;
28311;SDS011;15572;48.810;9.148;2023-07-28T07:19:14;7.63;;;4.75;;
28311;SDS011;15572;48.810;9.148;2023-07-28T07:24:12;5.05;;;4.32;;
28311;SDS011;15572;48.810;9.148;2023-07-28T07:29:09;28.92;;;11.73;;
28311;SDS011;15572;48.810;9.148;2023-07-28T07:34:06;31.50;;;11.40;;
28311;SDS011;15572;48.810;9.148;2023-07-28T07:39:02;6.05;;;4.53;;
28311;SDS011;15572;48.810;9.148;2023-07-28T07:44:01;7.60;;;4.90;;
28311;SDS011;15572;48.810;9.148;2023-07-28T07:48:57;7.20;;;4.95;;
28311;SDS011;15572;48.810;9.148;2023-07-28T07:53:54;4.93;;;3.88;;
28311;SDS011;15572;48.810;9.148;2023-07-28T07:58:50;4.88;;;3.90;;
28311;SDS011;15572;48.810;9.148;2023-07-28T08:03:48;7.20;;;3.90;;
28311;SDS011;15572;48.810;9.148;2023-07-28T08:08:45;4.07;;;3.65;;
28311;SDS011;15572;48.810;9.148;2023-07-28T08:13:41;4.13;;;3.40;;
28311;SDS011;15572;48.810;9.148;2023-07-28T08:18:38;5.15;;;3.78;;
28311;SDS011;15572;48.810;9.148;2023-07-28T08:23:36;4.10;;;3.53;;
28311;SDS011;15572;48.810;9.148;2023-07-28T08:28:33;4.80;;;3.38;;
28311;SDS011;15572;48.810;9.148;2023-07-28T08:33:29;6.32;;;3.15;;
28311;SDS011;15572;48.810;9.148;2023-07-28T08:38:26;3.80;;;3.30;;
28311;SDS011;15572;48.810;9.148;2023-07-28T08:43:23;5.18;;;3.58;;
28311;SDS011;15572;48.810;9.148;2023-07-28T08:48:20;5.90;;;3.40;;
28311;SDS011;15572;48.810;9.148;2023-07-28T08:53:17;18.73;;;12.02;;
28311;SDS011;15572;48.810;9.148;2023-07-28T08:58:13;7.45;;;5.07;;
28311;SDS011;15572;48.810;9.148;2023-07-28T09:03:12;8.48;;;4.63;;
28311;SDS011;15572;48.810;9.148;2023-07-28T09:08:08;6.50;;;4.20;;
28311;SDS011;15572;48.810;9.148;2023-07-28T09:13:07;5.05;;;3.97;;
28311;SDS011;15572;48.810;9.148;2023-07-28T09:18:07;3.97;;;3.58;;
28311;SDS011;15572;48.810;9.148;2023-07-28T09:23:05;4.32;;;3.78;;
28311;SDS011;15572;48.810;9.148;2023-07-28T09:28:03;5.13;;;3.65;;
28311;SDS011;15572;48.810;9.148;2023-07-28T09:33:00;8.05;;;3.78;;
28311;SDS011;15572;48.810;9.148;2023-07-28T09:37:57;4.63;;;3.42;;
28311;SDS011;15572;48.810;9.148;2023-07-28T09:42:55;4.25;;;3.30;;
28311;SDS011;15572;48.810;9.148;2023-07-28T09:47:53;8.65;;;5.20;;
28311;SDS011;15572;48.810;9.148;2023-07-28T09:52:53;11.15;;;4.25;;
28311;SDS011;15572;48.810;9.148;2023-07-28T09:57:59;6.80;;;5.10;;
28311;SDS011;15572;48.810;9.148;2023-07-28T10:03:02;7.85;;;4.82;;
28311;SDS011;15572;48.810;9.148;2023-07-28T10:07:58;7.38;;;4.10;;
28311;SDS011;15572;48.810;9.148;2023-07-28T10:12:57;6.25;;;4.15;;
28311;SDS011;15572;48.810;9.148;2023-07-28T10:17:56;7.18;;;3.80;;
28311;SDS011;15572;48.810;9.148;2023-07-28T10:23:01;4.20;;;3.40;;
28311;SDS011;15572;48.810;9.148;2023-07-28T10:28:00;4.22;;;3.45;;
28311;SDS011;15572;48.810;9.148;2023-07-28T10:32:58;3.63;;;3.28;;
28311;SDS011;15572;48.810;9.148;2023-07-28T10:37:54;4.35;;;3.13;;
28311;SDS011;15572;48.810;9.148;2023-07-28T10:42:52;4.53;;;3.00;;
28311;SDS011;15572;48.810;9.148;2023-07-28T10:47:50;5.32;;;3.42;;
28311;SDS011;15572;48.810;9.148;2023-07-28T10:52:52;2.97;;;2.30;;
28311;SDS011;15572;48.810;9.148;2023-07-28T10:57:49;4.38;;;2.50;;
28311;SDS011;15572;48.810;9.148;2023-07-28T11:02:47;3.00;;;2.20;;
28311;SDS011;15572;48.810;9.148;2023-07-28T11:07:46;2.25;;;1.63;;
28311;SDS011;15572;48.810;9.148;2023-07-28T11:12:44;6.78;;;1.80;;
28311;SDS011;15572;48.810;9.148;2023-07-28T11:17:43;1.48;;;1.33;;
28311;SDS011;15572;48.810;9.148;2023-07-28T11:22:42;1.85;;;1.40;;
28311;SDS011;15572;48.810;9.148;2023-07-28T11:27:40;1.95;;;1.10;;
28311;SDS011;15572;48.810;9.148;2023-07-28T11:32:37;1.38;;;1.20;;
28311;SDS011;15572;48.810;9.148;2023-07-28T11:37:34;1.25;;;1.15;;
28311;SDS011;15572;48.810;9.148;2023-07-28T11:42:32;1.38;;;1.27;;
28311;SDS011;15572;48.810;9.148;2023-07-28T11:47:30;1.95;;;1.20;;
28311;SDS011;15572;48.810;9.148;2023-07-28T11:52:29;1.75;;;1.25;;
28311;SDS011;15572;48.810;9.148;2023-07-28T11:57:27;1.45;;;1.33;;
28311;SDS011;15572;48.810;9.148;2023-07-28T12:02:26;2.20;;;1.50;;
28311;SDS011;15572;48.810;9.148;2023-07-28T12:07:28;2.00;;;1.80;;
28311;SDS011;15572;48.810;9.148;2023-07-28T12:12:26;4.50;;;1.60;;
28311;SDS011;15572;48.810;9.148;2023-07-28T12:17:25;1.63;;;1.52;;
28311;SDS011;15572;48.810;9.148;2023-07-28T12:22:23;1.50;;;1.40;;
28311;SDS011;15572;48.810;9.148;2023-07-28T12:27:21;1.70;;;1.60;;
28311;SDS011;15572;48.810;9.148;2023-07-28T12:32:19;2.63;;;2.00;;
28311;SDS011;15572;48.810;9.148;2023-07-28T12:37:19;2.03;;;1.67;;
28311;SDS011;15572;48.810;9.148;2023-07-28T12:42:16;2.08;;;1.88;;
28311;SDS011;15572;48.810;9.148;2023-07-28T12:47:14;2.33;;;1.92;;
28311;SDS011;15572;48.810;9.148;2023-07-28T12:52:11;4.13;;;2.03;;
28311;SDS011;15572;48.810;9.148;2023-07-28T12:57:07;1.92;;;1.67;;
28311;SDS011;15572;48.810;9.148;2023-07-28T13:02:07;3.10;;;2.13;;
28311;SDS011;15572;48.810;9.148;2023-07-28T13:07:05;3.22;;;1.95;;
28311;SDS011;15572;48.810;9.148;2023-07-28T13:12:02;2.17;;;1.98;;
28311;SDS011;15572;48.810;9.148;2023-07-28T13:16:59;2.78;;;2.40;;
28311;SDS011;15572;48.810;9.148;2023-07-28T13:21:56;3.47;;;2.15;;
28311;SDS011;15572;48.810;9.148;2023-07-28T13:26:53;3.20;;;2.40;;
28311;SDS011;15572;48.810;9.148;2023-07-28T13:31:50;2.70;;;2.40;;
28311;SDS011;15572;48.810;9.148;2023-07-28T13:36:46;4.47;;;2.55;;
28311;SDS011;15572;48.810;9.148;2023-07-28T13:41:43;3.92;;;3.03;;
28311;SDS011;15572;48.810;9.148;2023-07-28T13:46:40;4.95;;;3.10;;
28311;SDS011;15572;48.810;9.148;2023-07-28T13:51:37;5.63;;;3.33;;
28311;SDS011;15572;48.810;9.148;2023-07-28T13:56:33;4.75;;;3.78;;
28311;SDS011;15572;48.810;9.148;2023-07-28T14:01:30;7.05;;;3.70;;
28311;SDS011;15572;48.810;9.148;2023-07-28T14:06:28;4.78;;;3.50;;
28311;SDS011;15572;48.810;9.148;2023-07-28T14:11:25;7.90;;;4.65;;
28311;SDS011;15572;48.810;9.148;2023-07-28T14:16:21;6.95;;;4.60;;
28311;SDS011;15572;48.810;9.148;2023-07-28T14:21:18;6.00;;;4.20;;
28311;SDS011;15572;48.810;9.148;2023-07-28T14:26:16;7.70;;;4.10;;
28311;SDS011;15572;48.810;9.148;2023-07-28T14:31:12;7.95;;;5.05;;
28311;SDS011;15572;48.810;9.148;2023-07-28T14:36:08;6.68;;;4.47;;
28311;SDS011;15572;48.810;9.148;2023-07-28T14:41:05;6.28;;;4.40;;
28311;SDS011;15572;48.810;9.148;2023-07-28T14:46:03;8.18;;;4.82;;
28311;SDS011;15572;48.810;9.148;2023-07-28T14:51:00;8.70;;;5.22;;
28311;SDS011;15572;48.810;9.148;2023-07-28T14:55:56;6.45;;;4.72;;
28311;SDS011;15572;48.810;9.148;2023-07-28T15:00:53;6.47;;;4.80;;
28311;SDS011;15572;48.810;9.148;2023-07-28T15:05:51;7.05;;;5.32;;
28311;SDS011;15572;48.810;9.148;2023-07-28T15:10:47;7.35;;;5.15;;
28311;SDS011;15572;48.810;9.148;2023-07-28T15:15:43;8.00;;;5.95;;
28311;SDS011;15572;48.810;9.148;2023-07-28T15:20:40;8.68;;;5.47;;
28311;SDS011;15572;48.810;9.148;2023-07-28T15:25:39;5.75;;;4.88;;
28311;SDS011;15572;48.810;9.148;2023-07-28T15:30:38;9.18;;;5.32;;
28311;SDS011;15572;48.810;9.148;2023-07-28T15:35:34;6.18;;;4.82;;
28311;SDS011;15572;48.810;9.148;2023-07-28T15:40:30;7.93;;;5.00;;
28311;SDS011;15572;48.810;9.148;2023-07-28T15:45:30;6.03;;;5.38;;
28311;SDS011;15572;48.810;9.148;2023-07-28T15:50:27;6.38;;;5.30;;
28311;SDS011;15572;48.810;9.148;2023-07-28T15:55:24;7.38;;;4.78;;
28311;SDS011;15572;48.810;9.148;2023-07-28T16:00:20;7.68;;;5.35;;
28311;SDS011;15572;48.810;9.148;2023-07-28T16:05:18;7.05;;;4.93;;
28311;SDS011;15572;48.810;9.148;2023-07-28T16:10:15;7.68;;;5.72;;
28311;SDS011;15572;48.810;9.148;2023-07-28T16:15:11;8.00;;;5.78;;
28311;SDS011;15572;48.810;9.148;2023-07-28T16:20:08;5.47;;;4.85;;
28311;SDS011;15572;48.810;9.148;2023-07-28T16:25:07;9.68;;;6.10;;
28311;SDS011;15572;48.810;9.148;2023-07-28T16:30:04;6.85;;;6.03;;
28311;SDS011;15572;48.810;9.148;2023-07-28T16:35:02;9.15;;;6.15;;
28311;SDS011;15572;48.810;9.148;2023-07-28T16:39:58;8.30;;;5.25;;
28311;SDS011;15572;48.810;9.148;2023-07-28T16:44:57;6.22;;;5.18;;
28311;SDS011;15572;48.810;9.148;2023-07-28T16:49:54;6.35;;;5.45;;
28311;SDS011;15572;48.810;9.148;2023-07-28T16:54:50;6.90;;;5.72;;
28311;SDS011;15572;48.810;9.148;2023-07-28T16:59:47;9.25;;;6.75;;
28311;SDS011;15572;48.810;9.148;2023-07-28T17:04:44;9.85;;;7.40;;
28311;SDS011;15572;48.810;9.148;2023-07-28T17:09:41;10.50;;;7.50;;
28311;SDS011;15572;48.810;9.148;2023-07-28T17:14:38;9.60;;;7.72;;
28311;SDS011;15572;48.810;9.148;2023-07-28T17:19:34;29.33;;;19.38;;
28311;SDS011;15572;48.810;9.148;2023-07-28T17:24:32;10.85;;;8.43;;
28311;SDS011;15572;48.810;9.148;2023-07-28T17:29:29;11.45;;;8.13;;
28311;SDS011;15572;48.810;9.148;2023-07-28T17:34:25;10.30;;;7.63;;
28311;SDS011;15572;48.810;9.148;2023-07-28T17:39:22;9.98;;;7.80;;
28311;SDS011;15572;48.810;9.148;2023-07-28T17:44:20;12.60;;;8.43;;
28311;SDS011;15572;48.810;9.148;2023-07-28T17:49:16;12.43;;;8.77;;
28311;SDS011;15572;48.810;9.148;2023-07-28T17:54:13;10.30;;;7.90;;
28311;SDS011;15572;48.810;9.148;2023-07-28T17:59:09;12.65;;;8.65;;
28311;SDS011;15572;48.810;9.148;2023-07-28T18:04:07;11.32;;;7.20;;
28311;SDS011;15572;48.810;9.148;2023-07-28T18:09:03;9.45;;;8.07;;
28311;SDS011;15572;48.810;9.148;2023-07-28T18:14:00;12.82;;;8.90;;
28311;SDS011;15572;48.810;9.148;2023-07-28T18:18:57;10.32;;;8.40;;
28311;SDS011;15572;48.810;9.148;2023-07-28T18:23:55;10.48;;;8.50;;
28311;SDS011;15572;48.810;9.148;2023-07-28T18:28:51;12.95;;;9.68;;
28311;SDS011;15572;48.810;9.148;2023-07-28T18:33:48;15.45;;;10.40;;
28311;SDS011;15572;48.810;9.148;2023-07-28T18:38:44;12.85;;;9.68;;
28311;SDS011;15572;48.810;9.148;2023-07-28T18:43:42;12.10;;;8.65;;
28311;SDS011;15572;48.810;9.148;2023-07-28T18:48:38;11.13;;;9.07;;
28311;SDS011;15572;48.810;9.148;2023-07-28T18:53:35;14.00;;;10.07;;
28311;SDS011;15572;48.810;9.148;2023-07-28T18:58:31;12.32;;;9.30;;
28311;SDS011;15572;48.810;9.148;2023-07-28T19:03:30;14.30;;;9.60;;
28311;SDS011;15572;48.810;9.148;2023-07-28T19:08:27;12.43;;;9.45;;
28311;SDS011;15572;48.810;9.148;2023-07-28T19:13:24;9.98;;;7.60;;
28311;SDS011;15572;48.810;9.148;2023-07-28T19:18:21;9.60;;;7.82;;
28311;SDS011;15572;48.810;9.148;2023-07-28T19:23:20;9.43;;;7.00;;
28311;SDS011;15572;48.810;9.148;2023-07-28T19:28:18;8.20;;;6.65;;
28311;SDS011;15572;48.810;9.148;2023-07-28T19:33:15;8.07;;;6.75;;
28311;SDS011;15572;48.810;9.148;2023-07-28T19:38:12;9.13;;;6.45;;
28311;SDS011;15572;48.810;9.148;2023-07-28T19:43:11;7.55;;;5.70;;
28311;SDS011;15572;48.810;9.148;2023-07-28T19:48:07;9.75;;;7.32;;
28311;SDS011;15572;48.810;9.148;2023-07-28T19:53:04;7.35;;;6.57;;
28311;SDS011;15572;48.810;9.148;2023-07-28T19:58:01;9.10;;;6.80;;
28311;SDS011;15572;48.810;9.148;2023-07-28T20:02:59;8.40;;;4.90;;
28311;SDS011;15572;48.810;9.148;2023-07-28T20:07:56;6.80;;;4.30;;
28311;SDS011;15572;48.810;9.148;2023-07-28T20:12:53;7.00;;;4.20;;
28311;SDS011;15572;48.810;9.148;2023-07-28T20:17:49;5.03;;;4.03;;
28311;SDS011;15572;48.810;9.148;2023-07-28T20:22:47;5.25;;;3.80;;
28311;SDS011;15572;48.810;9.148;2023-07-28T20:27:51;8.10;;;3.42;;
28311;SDS011;15572;48.810;9.148;2023-07-28T20:32:47;7.18;;;3.75;;
28311;SDS011;15572;48.810;9.148;2023-07-28T20:37:44;4.00;;;3.60;;
28311;SDS011;15572;48.810;9.148;2023-07-28T20:42:43;5.35;;;3.83;;
28311;SDS011;15572;48.810;9.148;2023-07-28T20:47:40;4.50;;;3.92;;
28311;SDS011;15572;48.810;9.148;2023-07-28T20:52:36;6.55;;;4.70;;
28311;SDS011;15572;48.810;9.148;2023-07-28T20:57:33;6.53;;;4.50;;
28311;SDS011;15572;48.810;9.148;2023-07-28T21:02:31;7.50;;;4.60;;
28311;SDS011;15572;48.810;9.148;2023-07-28T21:07:29;5.57;;;4.13;;
28311;SDS011;15572;48.810;9.148;2023-07-28T21:12:25;4.93;;;4.07;;
28311;SDS011;15572;48.810;9.148;2023-07-28T21:17:22;5.60;;;3.88;;
28311;SDS011;15572;48.810;9.148;2023-07-28T21:22:20;4.60;;;3.80;;
28311;SDS011;15572;48.810;9.148;2023-07-28T21:27:16;6.35;;;4.05;;
28311;SDS011;15572;48.810;9.148;2023-07-28T21:32:13;4.97;;;3.80;;
28311;SDS011;15572;48.810;9.148;2023-07-28T21:37:10;4.00;;;3.58;;
28311;SDS011;15572;48.810;9.148;2023-07-28T21:42:08;3.63;;;3.22;;
28311;SDS011;15572;48.810;9.148;2023-07-28T21:47:05;3.45;;;2.33;;
28311;SDS011;15572;48.810;9.148;2023-07-28T21:52:02;3.45;;;2.10;;
28311;SDS011;15572;48.810;9.148;2023-07-28T21:56:59;3.17;;;1.73;;
28311;SDS011;15572;48.810;9.148;2023-07-28T22:01:57;3.35;;;1.60;;
28311;SDS011;15572;48.810;9.148;2023-07-28T22:06:54;2.20;;;1.55;;
28311;SDS011;15572;48.810;9.148;2023-07-28T22:11:50;2.13;;;1.40;;
28311;SDS011;15572;48.810;9.148;2023-07-28T22:16:47;2.20;;;1.70;;
28311;SDS011;15572;48.810;9.148;2023-07-28T22:21:45;4.32;;;1.60;;
28311;SDS011;15572;48.810;9.148;2023-07-28T22:26:41;3.35;;;1.60;;
28311;SDS011;15572;48.810;9.148;2023-07-28T22:31:37;1.88;;;1.40;;
28311;SDS011;15572;48.810;9.148;2023-07-28T22:36:34;6.77;;;1.60;;
28311;SDS011;15572;48.810;9.148;2023-07-28T22:41:32;3.38;;;1.75;;
28311;SDS011;15572;48.810;9.148;2023-07-28T22:46:28;4.88;;;1.55;;
28311;SDS011;15572;48.810;9.148;2023-07-28T22:51:25;3.03;;;1.50;;
28311;SDS011;15572;48.810;9.148;2023-07-28T22:56:21;3.42;;;1.50;;
28311;SDS011;15572;48.810;9.148;2023-07-28T23:01:19;2.28;;;1.42;;
28311;SDS011;15572;48.810;9.148;2023-07-28T23:06:16;2.58;;;1.35;;
28311;SDS011;15572;48.810;9.148;2023-07-28T23:11:12;2.13;;;1.50;;
28311;SDS011;15572;48.810;9.148;2023-07-28T23:16:09;1.88;;;1.75;;
28311;SDS011;15572;48.810;9.148;2023-07-28T23:21:06;5.57;;;1.70;;
28311;SDS011;15572;48.810;9.148;2023-07-28T23:26:03;1.98;;;1.58;;
28311;SDS011;15572;48.810;9.148;2023-07-28T23:31:13;2.37;;;1.80;;
28311;SDS011;15572;48.810;9.148;2023-07-28T23:36:11;1.70;;;1.40;;
28311;SDS011;15572;48.810;9.148;2023-07-28T23:41:08;2.72;;;1.58;;
28311;SDS011;15572;48.810;9.148;2023-07-28T23:46:04;2.85;;;1.63;;
28311;SDS011;15572;48.810;9.148;2023-07-28T23:51:01;5.80;;;1.80;;
28311;SDS011;15572;48.810;9.148;2023-07-28T23:55:58;4.10;;;1.80;;
